Time;durP1;ratioP1;P1;durP2;ratioP2;P2;SDS_P1;SDS_P2;PMS_P1;PMS_P2;Temp;Humidity;BMP_temperature;BMP_pressure;BME280_temperature;BME280_humidity;BME280_pressure;Samples;Min_cycle;Max_cycle;Signal;HPM_P1;HPM_P2
2023/06/06 00:01:59;;;;;;;3.85;2.65;;;;;;;17.57;55.37;95356.53;5009302;28;20206;-66
2023/06/06 00:04:29;;;;;;;2.53;2.20;;;;;;;17.46;54.70;95361.44;5006503;28;20703;-66
2023/06/06 00:06:56;;;;;;;2.70;2.50;;;;;;;17.46;54.26;95351.16;5010361;28;20277;-67
2023/06/06 00:09:23;;;;;;;2.63;2.42;;;;;;;17.43;53.46;95357.28;5008325;28;20235;-66
2023/06/06 00:11:50;;;;;;;2.63;2.38;;;;;;;17.39;53.58;95353.22;5008399;28;20207;-64
2023/06/06 00:14:18;;;;;;;2.17;1.98;;;;;;;17.28;53.93;95348.69;5007439;28;20270;-63
2023/06/06 00:16:48;;;;;;;4.40;2.50;;;;;;;17.22;53.88;95354.16;5009088;28;20211;-67
2023/06/06 00:19:15;;;;;;;2.53;2.33;;;;;;;17.21;53.50;95344.81;5006454;28;20322;-66
2023/06/06 00:21:43;;;;;;;3.75;3.45;;;;;;;17.15;53.95;95341.72;5009594;28;20225;-66
2023/06/06 00:24:11;;;;;;;2.25;2.00;;;;;;;17.17;53.51;95356.16;5005673;28;20406;-67
2023/06/06 00:26:38;;;;;;;2.35;2.25;;;;;;;17.13;53.74;95346.13;5006966;28;20226;-67
2023/06/06 00:29:05;;;;;;;5.88;2.53;;;;;;;17.03;53.48;95347.56;5005311;28;20771;-65
2023/06/06 00:31:32;;;;;;;5.15;2.20;;;;;;;17.03;53.14;95352.69;5005851;28;20551;-68
2023/06/06 00:33:58;;;;;;;2.38;1.73;;;;;;;16.95;53.33;95346.22;5006031;28;20835;-66
2023/06/06 00:36:25;;;;;;;1.80;1.70;;;;;;;16.92;53.65;95346.38;5003674;28;20238;-65
2023/06/06 00:38:54;;;;;;;2.88;1.90;;;;;;;16.90;53.60;95344.81;5007342;28;20777;-67
2023/06/06 00:41:21;;;;;;;4.20;2.15;;;;;;;16.83;53.72;95341.72;5007807;28;20246;-64
2023/06/06 00:43:47;;;;;;;5.50;1.65;;;;;;;16.78;52.87;95343.75;5007367;28;21104;-64
2023/06/06 00:46:16;;;;;;;3.17;2.00;;;;;;;16.78;52.57;95343.75;5005732;28;20603;-67
2023/06/06 00:48:43;;;;;;;2.95;1.52;;;;;;;16.74;51.95;95346.53;5008220;28;20226;-66
2023/06/06 00:51:11;;;;;;;2.08;1.98;;;;;;;16.70;50.94;95345.88;5006809;28;20231;-64
2023/06/06 00:53:38;;;;;;;3.03;1.95;;;;;;;16.64;50.93;95349.59;5007731;28;20207;-69
2023/06/06 00:56:08;;;;;;;3.53;2.05;;;;;;;16.66;51.08;95354.63;5006855;28;20195;-66
2023/06/06 00:58:36;;;;;;;1.70;1.60;;;;;;;16.60;50.76;95349.78;5007749;28;20199;-69
2023/06/06 01:01:04;;;;;;;3.85;1.77;;;;;;;16.58;50.58;95364.47;5006758;28;20249;-68
2023/06/06 01:03:31;;;;;;;1.90;1.80;;;;;;;16.50;49.94;95359.72;5005259;28;20341;-67
2023/06/06 01:05:58;;;;;;;2.30;1.60;;;;;;;16.42;49.88;95366.97;5005696;28;20207;-64
2023/06/06 01:08:25;;;;;;;1.35;1.30;;;;;;;16.41;49.49;95359.38;5007274;28;20702;-64
2023/06/06 01:11:00;;;;;;;1.98;1.58;;;;;;;16.22;49.38;95329.53;5006990;28;20216;-67
2023/06/06 01:13:38;;;;;;;4.50;1.98;;;;;;;16.26;49.47;95346.44;5005121;28;20217;-66
2023/06/06 01:16:10;;;;;;;1.45;1.35;;;;;;;16.29;49.48;95361.66;5007751;28;20222;-68
2023/06/06 01:18:37;;;;;;;1.40;1.30;;;;;;;16.28;49.56;95359.19;5005409;28;20825;-66
2023/06/06 01:21:05;;;;;;;1.67;1.48;;;;;;;16.24;50.13;95363.63;5007693;28;20238;-66
2023/06/06 01:23:34;;;;;;;1.75;1.45;;;;;;;16.25;50.28;95359.31;5006653;28;20989;-66
2023/06/06 01:26:04;;;;;;;1.88;1.77;;;;;;;16.25;50.22;95362.72;5007691;28;20275;-68
2023/06/06 01:28:31;;;;;;;1.70;1.60;;;;;;;16.24;49.95;95366.19;5007151;28;20763;-69
2023/06/06 01:30:58;;;;;;;1.50;1.40;;;;;;;16.30;49.91;95363.31;5006557;28;20828;-67
2023/06/06 01:33:34;;;;;;;6.93;1.63;;;;;;;16.39;49.75;95364.56;5005557;28;20207;-67
2023/06/06 01:36:14;;;;;;;2.25;1.40;;;;;;;16.31;50.23;95362.41;5006862;28;20241;-64
2023/06/06 01:38:46;;;;;;;2.10;1.30;;;;;;;16.30;50.24;95367.63;5004827;28;20203;-65
2023/06/06 01:41:16;;;;;;;1.30;1.30;;;;;;;16.26;50.28;95361.00;5007754;28;20281;-68
2023/06/06 01:43:45;;;;;;;2.08;1.33;;;;;;;16.26;50.81;95369.50;5007279;28;20199;-67
2023/06/06 01:46:13;;;;;;;1.48;1.33;;;;;;;16.22;51.26;95364.59;5005681;28;20206;-68
2023/06/06 01:48:41;;;;;;;1.65;1.55;;;;;;;16.23;51.30;95359.41;5006909;28;20242;-67
2023/06/06 01:51:08;;;;;;;2.45;1.58;;;;;;;16.17;51.43;95341.75;5005018;28;20329;-68
2023/06/06 01:53:35;;;;;;;1.73;1.30;;;;;;;16.23;51.52;95367.09;5005852;28;20325;-65
2023/06/06 01:56:03;;;;;;;2.90;1.48;;;;;;;16.16;52.08;95365.75;5005854;28;20728;-67
2023/06/06 01:58:30;;;;;;;2.10;1.42;;;;;;;16.14;52.61;95370.13;5006496;28;20206;-69
2023/06/06 02:00:57;;;;;;;1.92;1.83;;;;;;;16.10;52.72;95366.03;5006539;28;20676;-67
2023/06/06 02:03:23;;;;;;;2.17;1.92;;;;;;;16.12;53.04;95373.66;5006998;28;20572;-68
2023/06/06 02:05:50;;;;;;;1.67;1.58;;;;;;;16.08;53.33;95372.19;5007290;28;20303;-69
2023/06/06 02:08:17;;;;;;;3.00;1.42;;;;;;;16.07;53.59;95376.47;5007261;28;22283;-68
2023/06/06 02:10:44;;;;;;;1.85;1.67;;;;;;;15.94;54.05;95375.41;5007057;28;20448;-66
2023/06/06 02:13:12;;;;;;;4.38;1.40;;;;;;;15.93;54.90;95372.03;5006062;28;20724;-66
2023/06/06 02:15:38;;;;;;;1.60;1.50;;;;;;;15.84;55.32;95374.19;5007095;28;20677;-67
2023/06/06 02:18:05;;;;;;;1.50;1.40;;;;;;;15.91;55.60;95371.25;5010857;28;20641;-69
2023/06/06 02:20:32;;;;;;;2.17;1.90;;;;;;;15.89;55.68;95382.50;5010915;28;20207;-69
2023/06/06 02:22:58;;;;;;;1.50;1.40;;;;;;;15.87;56.18;95385.13;5008292;28;20219;-69
2023/06/06 02:25:26;;;;;;;1.30;1.23;;;;;;;15.85;56.58;95389.50;5010439;28;21022;-64
2023/06/06 02:27:53;;;;;;;4.82;1.55;;;;;;;15.90;56.73;95395.22;5011857;28;20719;-68
2023/06/06 02:30:22;;;;;;;2.65;1.38;;;;;;;15.79;57.06;95392.38;5010435;28;20329;-68
2023/06/06 02:32:50;;;;;;;1.60;1.50;;;;;;;15.70;57.53;95404.81;5007819;28;20261;-67
2023/06/06 02:35:18;;;;;;;2.47;1.25;;;;;;;15.64;57.69;95393.09;5009021;28;20218;-68
2023/06/06 02:37:45;;;;;;;3.60;1.67;;;;;;;15.61;58.10;95394.06;5006999;28;20247;-65
2023/06/06 02:40:14;;;;;;;3.60;1.70;;;;;;;15.58;58.82;95389.13;5004792;28;20299;-66
2023/06/06 02:42:41;;;;;;;1.70;1.60;;;;;;;15.44;59.35;95393.19;5007437;28;20217;-65
2023/06/06 02:45:09;;;;;;;3.30;1.23;;;;;;;15.34;59.78;95392.81;5007463;28;22810;-67
2023/06/06 02:47:38;;;;;;;4.28;1.38;;;;;;;15.35;59.95;95402.13;5007410;28;20294;-69
2023/06/06 02:50:06;;;;;;;5.30;1.50;;;;;;;15.21;60.53;95402.78;5007787;28;20495;-66
2023/06/06 02:52:32;;;;;;;1.67;1.50;;;;;;;15.11;61.21;95404.09;5009967;28;20219;-64
2023/06/06 02:54:59;;;;;;;4.20;1.20;;;;;;;15.02;61.39;95399.41;5007086;28;20194;-63
2023/06/06 02:57:26;;;;;;;1.45;1.35;;;;;;;15.00;61.99;95408.06;5008677;28;20203;-64
2023/06/06 02:59:53;;;;;;;2.22;2.00;;;;;;;14.94;62.09;95397.19;5009231;28;20565;-67
2023/06/06 03:02:20;;;;;;;1.17;1.08;;;;;;;15.03;62.23;95406.19;5006845;28;20221;-64
2023/06/06 03:05:04;;;;;;;1.92;1.77;;;;;;;14.93;62.41;95405.78;5010214;28;20199;-68
2023/06/06 03:07:32;;;;;;;3.75;1.80;;;;;;;14.94;62.99;95397.19;5013027;28;20237;-68
2023/06/06 03:09:58;;;;;;;2.08;1.88;;;;;;;15.03;63.09;95400.25;5011208;28;20215;-65
2023/06/06 03:12:25;;;;;;;1.50;1.40;;;;;;;15.16;62.46;95404.72;5013699;28;20728;-67
2023/06/06 03:14:52;;;;;;;2.85;1.50;;;;;;;15.13;62.52;95411.72;5012628;28;20498;-64
2023/06/06 03:17:18;;;;;;;1.70;1.60;;;;;;;15.07;62.95;95406.91;5011911;28;20395;-66
2023/06/06 03:19:48;;;;;;;2.65;1.60;;;;;;;15.07;63.07;95406.91;5011303;28;20290;-67
2023/06/06 03:22:17;;;;;;;1.73;1.10;;;;;;;15.03;63.01;95405.38;5012001;28;20227;-67
2023/06/06 03:24:46;;;;;;;1.92;1.40;;;;;;;14.98;63.20;95408.13;5012053;28;20775;-66
2023/06/06 03:27:13;;;;;;;3.20;1.85;;;;;;;14.97;63.72;95412.41;5013042;28;20222;-67
2023/06/06 03:29:40;;;;;;;3.65;1.80;;;;;;;15.34;62.68;95399.69;5012699;28;22194;-68
2023/06/06 03:32:08;;;;;;;1.58;1.42;;;;;;;15.76;61.21;95407.06;5010419;28;20672;-69
2023/06/06 03:34:35;;;;;;;2.00;1.90;;;;;;;16.04;60.22;95407.38;5010641;28;20209;-67
2023/06/06 03:37:02;;;;;;;2.47;1.55;;;;;;;16.52;59.12;95403.25;4974237;28;1103057;-66
2023/06/06 03:39:31;;;;;;;5.05;1.92;;;;;;;17.16;56.62;95387.06;5013573;28;20239;-63
2023/06/06 03:41:58;;;;;;;8.10;1.70;;;;;;;17.90;54.40;95402.66;5011997;28;22335;-67
2023/06/06 03:44:24;;;;;;;3.85;1.38;;;;;;;18.02;53.60;95405.38;5008862;28;20348;-68
2023/06/06 03:46:51;;;;;;;1.83;1.70;;;;;;;18.05;53.77;95401.78;5009526;28;20211;-68
2023/06/06 03:49:18;;;;;;;2.30;2.10;;;;;;;18.06;54.17;95412.91;5009353;28;20367;-68
2023/06/06 03:51:44;;;;;;;1.77;1.67;;;;;;;17.93;54.55;95407.63;5008239;28;20247;-66
2023/06/06 03:54:11;;;;;;;7.45;1.45;;;;;;;17.72;55.28;95419.13;5008006;28;20207;-67
2023/06/06 03:56:40;;;;;;;2.50;1.55;;;;;;;17.34;55.80;95398.88;5008535;28;20710;-67
2023/06/06 03:59:11;;;;;;;4.18;1.75;;;;;;;17.50;55.69;95410.00;5008866;28;20211;-66
2023/06/06 04:01:38;;;;;;;2.28;1.88;;;;;;;17.27;56.71;95407.88;5010011;28;20229;-67
2023/06/06 04:04:06;;;;;;;3.15;2.05;;;;;;;17.37;56.20;95403.03;5007119;28;20261;-69
2023/06/06 04:06:33;;;;;;;1.92;1.80;;;;;;;17.34;56.05;95397.16;5010079;28;20589;-68
2023/06/06 04:08:59;;;;;;;2.88;1.67;;;;;;;17.44;55.88;95423.19;5009390;28;20902;-69
2023/06/06 04:11:26;;;;;;;2.42;1.70;;;;;;;17.46;56.04;95411.06;5008639;28;20684;-67
2023/06/06 04:13:54;;;;;;;2.05;1.73;;;;;;;17.78;55.33;95406.75;5008095;28;20202;-70
2023/06/06 04:16:21;;;;;;;4.40;1.58;;;;;;;17.89;54.39;95403.56;5009045;28;20290;-68
2023/06/06 04:18:48;;;;;;;3.72;1.58;;;;;;;17.83;54.67;95411.63;5009242;28;20207;-70
2023/06/06 04:21:15;;;;;;;4.13;2.15;;;;;;;18.03;54.89;95419.06;5009236;28;22068;-69
2023/06/06 04:23:42;;;;;;;3.75;1.52;;;;;;;18.32;53.74;95414.78;5008781;28;20224;-69
2023/06/06 04:26:11;;;;;;;3.53;2.08;;;;;;;18.74;52.58;95421.75;5009678;28;20310;-69
2023/06/06 04:28:39;;;;;;;6.15;2.10;;;;;;;18.91;52.04;95413.00;5009228;28;20217;-69
2023/06/06 04:31:07;;;;;;;1.80;1.70;;;;;;;18.78;52.42;95423.25;5008017;28;20746;-69
2023/06/06 04:33:34;;;;;;;2.75;1.77;;;;;;;18.38;52.89;95416.16;5006082;28;20652;-67
2023/06/06 04:36:01;;;;;;;3.28;1.77;;;;;;;17.91;53.82;95420.56;5007444;28;20278;-68
2023/06/06 04:38:29;;;;;;;5.25;1.75;;;;;;;17.49;55.36;95416.06;5006145;28;20257;-67
2023/06/06 04:41:01;;;;;;;2.47;1.67;;;;;;;17.30;56.12;95411.09;5007512;28;20297;-68
2023/06/06 04:43:28;;;;;;;4.40;1.95;;;;;;;17.31;56.24;95414.50;5006645;28;20240;-68
2023/06/06 04:46:00;;;;;;;5.30;1.70;;;;;;;17.31;56.41;95394.78;5008276;28;20206;-67
2023/06/06 04:48:29;;;;;;;4.65;1.90;;;;;;;17.58;56.17;95407.81;5009367;28;20210;-69
2023/06/06 04:50:56;;;;;;;2.10;1.90;;;;;;;17.65;55.43;95414.31;5008981;28;20235;-68
2023/06/06 04:53:23;;;;;;;3.65;1.77;;;;;;;18.18;54.59;95413.03;5008405;28;20333;-68
2023/06/06 04:55:51;;;;;;;2.78;2.00;;;;;;;18.34;53.48;95392.34;5008692;28;20231;-68
2023/06/06 04:58:19;;;;;;;2.10;1.88;;;;;;;18.11;53.83;95411.72;5010004;28;20244;-68
2023/06/06 05:00:46;;;;;;;5.03;2.00;;;;;;;17.86;54.45;95407.13;5008359;28;20195;-66
2023/06/06 05:03:16;;;;;;;3.72;1.80;;;;;;;17.48;55.18;95405.84;5009506;28;20215;-67
2023/06/06 05:05:44;;;;;;;2.38;1.88;;;;;;;17.72;56.77;95411.41;5007514;28;20622;-69
2023/06/06 05:08:11;;;;;;;2.30;1.70;;;;;;;17.83;55.46;95403.91;5009536;28;20260;-69
2023/06/06 05:10:40;;;;;;;2.63;2.15;;;;;;;18.24;54.59;95407.53;5009011;28;20234;-69
2023/06/06 05:13:07;;;;;;;1.60;1.50;;;;;;;18.68;52.95;95416.97;5008613;28;20211;-67
2023/06/06 05:15:33;;;;;;;2.80;2.08;;;;;;;18.90;52.74;95411.34;5006760;28;20405;-70
2023/06/06 05:18:00;;;;;;;2.38;2.05;;;;;;;19.08;51.86;95407.66;5009990;28;20214;-71
2023/06/06 05:20:27;;;;;;;4.20;2.05;;;;;;;18.84;51.59;95415.13;5008195;28;20286;-63
2023/06/06 05:22:55;;;;;;;2.22;2.13;;;;;;;18.81;52.52;95417.06;5008178;28;20214;-68
2023/06/06 05:25:21;;;;;;;1.98;1.88;;;;;;;18.73;52.94;95417.53;5007830;28;20665;-70
2023/06/06 05:27:51;;;;;;;3.10;2.00;;;;;;;18.84;51.82;95417.69;5008438;28;20257;-68
2023/06/06 05:30:18;;;;;;;2.58;2.38;;;;;;;18.94;52.28;95408.50;5007630;28;20226;-68
2023/06/06 05:32:45;;;;;;;3.28;2.13;;;;;;;19.14;53.01;95411.59;5008096;28;20230;-68
2023/06/06 05:35:11;;;;;;;7.20;2.35;;;;;;;19.51;52.31;95413.59;5006355;28;20297;-70
2023/06/06 05:37:41;;;;;;;2.05;1.60;;;;;;;20.14;50.96;95412.94;5011080;28;20325;-70
2023/06/06 05:40:10;;;;;;;2.83;2.50;;;;;;;20.57;50.39;95410.13;5009520;28;20207;-68
2023/06/06 05:42:38;;;;;;;2.33;1.77;;;;;;;20.83;48.45;95419.50;5009987;28;20218;-68
2023/06/06 05:45:06;;;;;;;2.33;2.13;;;;;;;21.36;46.75;95408.06;5007430;28;20740;-67
2023/06/06 05:47:33;;;;;;;4.00;1.75;;;;;;;21.69;43.82;95410.03;5007991;28;20296;-68
2023/06/06 05:50:00;;;;;;;2.03;1.65;;;;;;;22.64;43.03;95405.63;5009245;28;20317;-67
2023/06/06 05:52:26;;;;;;;3.22;3.03;;;;;;;23.09;41.19;95406.50;5010589;28;20222;-68
2023/06/06 05:55:02;;;;;;;5.20;2.03;;;;;;;23.35;39.95;95401.88;5010763;28;20207;-65
2023/06/06 05:57:30;;;;;;;7.35;2.20;;;;;;;23.73;39.91;95397.13;5008671;28;20858;-69
2023/06/06 06:00:00;;;;;;;4.43;2.03;;;;;;;23.68;40.30;95390.63;5011319;28;20283;-66
2023/06/06 06:02:28;;;;;;;2.13;1.73;;;;;;;23.42;42.22;95390.09;5010235;28;20207;-66
2023/06/06 06:04:56;;;;;;;3.70;1.73;;;;;;;24.26;41.10;95397.13;5012661;28;20211;-69
2023/06/06 06:07:24;;;;;;;4.38;2.05;;;;;;;25.53;38.48;95392.38;5011063;28;20290;-69
2023/06/06 06:09:51;;;;;;;4.10;2.15;;;;;;;26.60;36.31;95390.63;5011955;28;20676;-69
2023/06/06 06:12:17;;;;;;;3.08;2.15;;;;;;;27.00;34.94;95380.78;5010187;28;20973;-70
2023/06/06 06:14:46;;;;;;;5.93;2.28;;;;;;;27.34;34.06;95377.59;5008381;28;20210;-70
2023/06/06 06:17:12;;;;;;;6.10;2.10;;;;;;;28.82;31.64;95376.97;5008682;28;20297;-69
2023/06/06 06:19:39;;;;;;;2.17;1.85;;;;;;;31.05;29.03;95377.81;5013940;28;20207;-67
2023/06/06 06:22:06;;;;;;;2.72;1.45;;;;;;;31.34;27.04;95374.63;5010436;28;20210;-67
2023/06/06 06:24:32;;;;;;;1.77;1.52;;;;;;;31.33;26.84;95379.03;5011087;28;20396;-66
2023/06/06 06:26:59;;;;;;;5.57;2.38;;;;;;;31.57;26.92;95370.22;5010552;28;20662;-69
2023/06/06 06:29:26;;;;;;;5.65;1.58;;;;;;;32.84;25.61;95374.06;5008488;28;20752;-68
2023/06/06 06:31:54;;;;;;;1.95;1.75;;;;;;;32.72;25.56;95371.03;5003693;28;20226;-70
2023/06/06 06:34:21;;;;;;;1.88;1.77;;;;;;;33.24;24.66;95365.69;5006342;28;20203;-70
2023/06/06 06:36:48;;;;;;;2.22;1.98;;;;;;;34.59;23.60;95355.38;5004398;28;20334;-69
2023/06/06 06:39:18;;;;;;;5.05;2.15;;;;;;;34.73;23.05;95363.19;5006647;28;20199;-70
2023/06/06 06:41:45;;;;;;;2.35;2.10;;;;;;;36.33;22.76;95361.03;5006719;28;20207;-71
2023/06/06 06:44:12;;;;;;;2.25;1.95;;;;;;;38.22;20.14;95345.75;5006758;28;20214;-72
2023/06/06 06:46:39;;;;;;;2.40;2.03;;;;;;;37.24;20.48;95362.97;5006718;28;20294;-67
2023/06/06 06:49:14;;;;;;;6.35;2.47;;;;;;;35.45;21.83;95351.41;5007199;28;20629;-67
2023/06/06 06:51:41;;;;;;;2.50;1.80;;;;;;;34.38;22.39;95359.69;5008945;28;20225;-71
2023/06/06 06:54:10;;;;;;;1.88;1.58;;;;;;;33.99;23.66;95359.28;5009007;28;20199;-71
2023/06/06 06:56:37;;;;;;;3.20;1.80;;;;;;;33.40;24.20;95365.53;5006628;28;20288;-70
2023/06/06 06:59:05;;;;;;;2.20;2.00;;;;;;;33.65;24.12;95358.13;5006870;28;20203;-70
2023/06/06 07:01:32;;;;;;;1.77;1.65;;;;;;;34.66;22.65;95351.75;5008222;28;20203;-69
2023/06/06 07:03:59;;;;;;;2.97;1.55;;;;;;;35.74;21.63;95351.09;5012080;28;20218;-70
2023/06/06 07:06:28;;;;;;;4.70;2.30;;;;;;;36.37;20.96;95359.59;5010833;28;20207;-71
2023/06/06 07:08:55;;;;;;;2.15;2.00;;;;;;;35.58;21.62;95354.13;5010732;28;20210;-71
2023/06/06 07:11:22;;;;;;;3.35;1.92;;;;;;;33.58;23.48;95365.13;5011060;28;20234;-66
2023/06/06 07:13:48;;;;;;;4.70;1.92;;;;;;;31.97;25.06;95355.22;5009749;28;20199;-70
2023/06/06 07:16:15;;;;;;;3.25;1.77;;;;;;;31.34;25.50;95358.84;5009915;28;20272;-69
2023/06/06 07:18:43;;;;;;;3.33;1.80;;;;;;;30.98;26.70;95348.78;5009037;28;20234;-68
2023/06/06 07:21:09;;;;;;;7.30;2.47;;;;;;;32.41;25.35;95343.06;5011819;28;20211;-69
2023/06/06 07:23:39;;;;;;;4.40;2.28;;;;;;;33.80;23.88;95347.56;5009636;28;20306;-69
2023/06/06 07:26:06;;;;;;;3.17;1.65;;;;;;;36.03;21.21;95355.25;5009724;28;20207;-68
2023/06/06 07:28:33;;;;;;;3.80;1.92;;;;;;;34.10;23.05;95364.06;5010418;28;20244;-67
2023/06/06 07:31:00;;;;;;;3.42;2.13;;;;;;;33.16;23.83;95357.09;5010856;28;20234;-70
2023/06/06 07:33:27;;;;;;;2.95;2.22;;;;;;;34.27;23.22;95357.53;5010274;28;20273;-70
2023/06/06 07:35:53;;;;;;;3.22;2.42;;;;;;;35.87;21.14;95346.91;5010831;28;20203;-71
2023/06/06 07:38:20;;;;;;;2.95;2.00;;;;;;;36.14;21.26;95345.88;5010966;28;20239;-70
2023/06/06 07:40:48;;;;;;;4.43;2.05;;;;;;;33.80;22.80;95360.72;5010587;28;20215;-69
2023/06/06 07:43:15;;;;;;;3.38;2.00;;;;;;;31.19;26.16;95348.25;5010039;28;20306;-68
2023/06/06 07:45:41;;;;;;;4.30;2.05;;;;;;;30.29;27.83;95352.03;5009677;28;20206;-69
2023/06/06 07:48:08;;;;;;;4.15;2.13;;;;;;;30.33;28.23;95350.72;5009500;28;20316;-70
2023/06/06 07:50:35;;;;;;;2.05;1.90;;;;;;;30.59;28.32;95340.06;5010482;28;20234;-70
2023/06/06 07:53:02;;;;;;;3.08;2.20;;;;;;;31.88;27.62;95351.03;5009525;28;20613;-66
2023/06/06 07:55:30;;;;;;;1.80;1.70;;;;;;;31.55;26.07;95345.94;5009166;28;20207;-67
2023/06/06 07:58:01;;;;;;;2.67;2.00;;;;;;;30.75;27.01;95347.88;5009270;28;20207;-68
2023/06/06 08:00:28;;;;;;;5.03;1.88;;;;;;;30.96;28.02;95349.94;5008382;28;20213;-66
2023/06/06 08:02:55;;;;;;;2.30;2.10;;;;;;;32.18;26.32;95344.84;5009158;28;22069;-69
2023/06/06 08:05:22;;;;;;;29.65;22.65;;;;;;;32.51;25.86;95357.75;5007829;28;20307;-61
2023/06/06 08:07:49;;;;;;;2.53;2.33;;;;;;;33.06;25.09;95350.28;5008924;28;20233;-62
2023/06/06 08:10:16;;;;;;;2.30;1.73;;;;;;;34.41;24.35;95351.38;5006978;28;20241;-64
2023/06/06 08:12:43;;;;;;;3.08;2.60;;;;;;;36.53;21.85;95339.81;5009562;28;20223;-65
2023/06/06 08:15:12;;;;;;;2.50;2.30;;;;;;;38.39;20.06;95344.19;5008433;28;20368;-68
2023/06/06 08:17:38;;;;;;;4.40;2.17;;;;;;;38.23;19.82;95344.72;5011175;28;20688;-68
2023/06/06 08:20:08;;;;;;;6.70;2.47;;;;;;;37.72;20.28;95350.94;5009910;28;20222;-68
2023/06/06 08:22:38;;;;;;;3.25;2.08;;;;;;;37.42;21.09;95348.00;5011567;28;20236;-67
2023/06/06 08:25:06;;;;;;;3.08;2.42;;;;;;;38.50;20.13;95347.16;5008808;28;20226;-68
2023/06/06 08:27:33;;;;;;;2.38;2.17;;;;;;;39.10;19.03;95351.72;5009106;28;20249;-70
2023/06/06 08:30:00;;;;;;;4.40;2.20;;;;;;;40.11;18.98;95344.94;5009497;28;20714;-71
2023/06/06 08:32:30;;;;;;;5.13;2.40;;;;;;;41.18;18.28;95347.47;5005173;28;20254;-70
2023/06/06 08:34:57;;;;;;;2.90;2.70;;;;;;;42.32;16.63;95341.13;5007155;28;20553;-70
2023/06/06 08:37:23;;;;;;;6.70;2.63;;;;;;;42.35;17.18;95339.81;5007799;28;20801;-69
2023/06/06 08:39:50;;;;;;;2.70;2.47;;;;;;;41.31;17.71;95339.25;5007935;28;20666;-67
2023/06/06 08:42:20;;;;;;;3.80;2.30;;;;;;;40.54;17.77;95338.56;5007593;28;20237;-67
2023/06/06 08:44:47;;;;;;;3.55;2.65;;;;;;;39.98;18.65;95332.66;5009068;28;20348;-68
2023/06/06 08:47:14;;;;;;;4.07;2.28;;;;;;;39.66;19.04;95333.91;5007958;28;20257;-75
2023/06/06 08:49:43;;;;;;;2.53;2.30;;;;;;;41.29;17.62;95336.81;5009027;28;20211;-70
2023/06/06 08:52:12;;;;;;;3.88;3.00;;;;;;;40.72;17.77;95325.13;5008613;28;20227;-74
2023/06/06 08:54:39;;;;;;;4.50;2.50;;;;;;;40.47;19.18;95321.88;5004697;28;20202;-69
2023/06/06 08:57:08;;;;;;;2.45;2.35;;;;;;;40.29;18.80;95323.56;5006240;28;20766;-75
2023/06/06 08:59:38;;;;;;;5.90;4.32;;;;;;;40.95;17.83;95317.13;5005932;28;20301;-68
2023/06/06 09:02:06;;;;;;;3.63;3.33;;;;;;;41.75;18.07;95319.84;5002095;28;20222;-65
2023/06/06 09:04:34;;;;;;;7.82;6.45;;;;;;;42.05;17.91;95313.44;5006188;28;20195;-71
2023/06/06 09:07:08;;;;;;;4.07;2.83;;;;;;;42.44;17.72;95314.38;5006583;28;20191;-69
2023/06/06 09:09:37;;;;;;;4.72;2.40;;;;;;;41.11;18.08;95313.72;5006971;28;20437;-67
2023/06/06 09:12:06;;;;;;;3.40;2.03;;;;;;;37.73;20.03;95299.53;5007337;28;20257;-71
2023/06/06 09:14:33;;;;;;;2.58;2.38;;;;;;;37.25;21.38;95301.78;5008106;28;20665;-70
2023/06/06 09:17:00;;;;;;;2.60;2.40;;;;;;;37.08;21.73;95296.13;5009581;28;20207;-67
2023/06/06 09:19:27;;;;;;;6.45;2.40;;;;;;;35.51;23.92;95292.47;5007158;28;20889;-65
2023/06/06 09:21:54;;;;;;;3.70;2.20;;;;;;;33.71;25.62;95288.81;5007271;28;20227;-72
2023/06/06 09:24:22;;;;;;;2.65;2.35;;;;;;;34.37;25.86;95297.38;5006784;28;20253;-65
2023/06/06 09:26:48;;;;;;;2.80;2.45;;;;;;;34.43;25.44;95288.66;5008054;28;22350;-68
2023/06/06 09:29:15;;;;;;;4.43;2.80;;;;;;;35.01;25.69;95297.16;5008191;28;20199;-70
2023/06/06 09:31:42;;;;;;;5.40;2.90;;;;;;;34.54;25.41;95284.69;5008284;28;20227;-69
2023/06/06 09:34:11;;;;;;;2.63;2.40;;;;;;;34.15;27.17;95289.66;5008378;28;20215;-73
2023/06/06 09:36:41;;;;;;;3.42;3.13;;;;;;;33.21;27.01;95286.22;5008019;28;20266;-68
2023/06/06 09:39:11;;;;;;;4.60;2.67;;;;;;;30.99;29.79;95294.47;5008007;28;20293;-65
2023/06/06 09:41:45;;;;;;;6.03;2.90;;;;;;;29.96;32.34;95293.50;5007908;28;20199;-68
2023/06/06 09:44:20;;;;;;;4.15;2.60;;;;;;;29.18;34.31;95287.84;5007105;28;20793;-66
2023/06/06 09:46:47;;;;;;;2.58;2.38;;;;;;;28.51;36.58;95279.03;5006335;28;20644;-65
2023/06/06 09:49:14;;;;;;;2.50;2.30;;;;;;;27.62;38.16;95287.88;5006887;28;20711;-70
2023/06/06 09:51:42;;;;;;;5.38;2.92;;;;;;;26.89;38.79;95279.22;5007244;28;20241;-66
2023/06/06 09:54:09;;;;;;;5.35;2.95;;;;;;;26.71;41.07;95287.00;5009086;28;20203;-64
2023/06/06 09:56:40;;;;;;;7.93;2.40;;;;;;;26.15;41.17;95281.81;5007704;28;20273;-68
2023/06/06 09:59:09;;;;;;;3.05;2.70;;;;;;;25.45;41.67;95280.34;5006931;28;20207;-67
2023/06/06 10:01:39;;;;;;;3.05;2.75;;;;;;;25.18;44.23;95275.81;5008437;28;20692;-65
2023/06/06 10:04:06;;;;;;;3.47;2.85;;;;;;;25.27;44.43;95276.75;5008014;28;20321;-71
2023/06/06 10:06:34;;;;;;;3.60;3.30;;;;;;;25.01;43.36;95272.06;5008383;28;20207;-72
2023/06/06 10:09:02;;;;;;;5.75;3.97;;;;;;;25.08;45.07;95273.19;5008547;28;20281;-64
2023/06/06 10:11:29;;;;;;;7.20;3.28;;;;;;;24.88;44.70;95276.66;5008544;28;20286;-69
2023/06/06 10:13:56;;;;;;;9.75;4.32;;;;;;;24.75;47.18;95274.28;5007811;28;20215;-67
2023/06/06 10:16:27;;;;;;;3.25;3.05;;;;;;;24.84;45.67;95269.25;5006879;28;20206;-69
2023/06/06 10:18:56;;;;;;;3.47;3.03;;;;;;;24.71;45.25;95264.31;5008838;28;20241;-74
2023/06/06 10:21:24;;;;;;;3.90;3.10;;;;;;;24.59;45.27;95265.34;5008735;28;21953;-65
2023/06/06 10:23:51;;;;;;;6.18;2.92;;;;;;;24.62;46.38;95262.50;5008700;28;20321;-69
2023/06/06 10:26:23;;;;;;;3.08;2.78;;;;;;;24.81;45.55;95264.34;5006245;28;20586;-67
2023/06/06 10:28:59;;;;;;;7.40;3.05;;;;;;;25.08;44.27;95257.59;5008607;28;20764;-72
2023/06/06 10:31:35;;;;;;;5.88;3.35;;;;;;;25.08;44.43;95252.38;5006317;28;21381;-72
2023/06/06 10:34:07;;;;;;;8.73;2.30;;;;;;;25.01;44.55;95246.06;5006982;28;20206;-70
2023/06/06 10:36:45;;;;;;;3.40;3.10;;;;;;;25.16;43.28;95246.50;5006944;28;20337;-72
2023/06/06 10:39:19;;;;;;;3.85;2.83;;;;;;;25.37;44.61;95248.97;5011169;28;20294;-69
2023/06/06 10:41:51;;;;;;;4.82;2.58;;;;;;;25.29;42.99;95246.22;5013173;28;20247;-68
2023/06/06 10:44:20;;;;;;;4.15;2.47;;;;;;;25.39;44.51;95244.47;5011488;28;20202;-69
2023/06/06 10:46:51;;;;;;;3.15;2.95;;;;;;;25.58;43.26;95239.25;5010653;28;20255;-66
2023/06/06 10:49:19;;;;;;;2.63;2.47;;;;;;;25.53;44.13;95236.22;5009999;28;20647;-68
2023/06/06 10:51:48;;;;;;;3.83;2.60;;;;;;;25.07;44.35;95234.31;5011939;28;20317;-74
2023/06/06 10:54:16;;;;;;;3.63;2.58;;;;;;;24.56;45.26;95234.44;5011352;28;20198;-65
2023/06/06 10:56:48;;;;;;;3.22;2.58;;;;;;;24.15;45.92;95230.97;5009343;28;20260;-70
2023/06/06 10:59:15;;;;;;;3.33;3.08;;;;;;;24.10;46.54;95222.75;5009605;28;20883;-67
2023/06/06 11:01:44;;;;;;;6.20;2.80;;;;;;;24.26;46.28;95228.31;5009589;28;20590;-68
2023/06/06 11:04:22;;;;;;;4.90;3.05;;;;;;;24.42;46.02;95231.25;5009940;28;20682;-70
2023/06/06 11:06:51;;;;;;;3.30;3.00;;;;;;;24.51;45.07;95210.63;5007965;28;20195;-67
2023/06/06 11:09:20;;;;;;;3.65;2.72;;;;;;;24.77;45.70;95204.00;5010146;28;20652;-67
2023/06/06 11:11:47;;;;;;;3.00;2.53;;;;;;;25.07;45.46;95208.31;5008717;28;20238;-62
2023/06/06 11:14:13;;;;;;;3.30;3.00;;;;;;;25.03;44.47;95202.56;5009348;28;20691;-72
2023/06/06 11:17:00;;;;;;;2.60;2.40;;;;;;;24.89;44.58;95195.13;5009750;28;20318;-68
2023/06/06 11:19:40;;;;;;;3.17;2.97;;;;;;;24.80;45.54;95203.72;5010812;28;20692;-66
2023/06/06 11:22:19;;;;;;;5.10;2.97;;;;;;;24.70;44.45;95200.31;5011977;28;21303;-68
2023/06/06 11:24:46;;;;;;;5.65;2.33;;;;;;;24.78;44.87;95184.84;5010677;28;20285;-64
2023/06/06 11:27:16;;;;;;;4.05;2.55;;;;;;;24.83;45.13;95190.47;5009052;28;20297;-66
2023/06/06 11:29:42;;;;;;;5.68;2.28;;;;;;;24.70;43.76;95187.31;5011503;28;20592;-67
2023/06/06 11:32:11;;;;;;;6.07;2.70;;;;;;;24.71;45.17;95186.34;5011218;28;20393;-65
2023/06/06 11:34:39;;;;;;;5.85;2.13;;;;;;;24.68;43.44;95176.22;5011424;28;20257;-65
2023/06/06 11:37:07;;;;;;;4.53;3.03;;;;;;;24.56;43.03;95182.47;5008136;28;20270;-68
2023/06/06 11:39:34;;;;;;;4.85;3.65;;;;;;;24.46;44.09;95182.47;5011033;28;20288;-69